createdAt,value
2022-11-19T00:01:24.558Z,93.32
2022-11-19T00:03:53.183Z,93.75
2022-11-19T00:06:22.657Z,93.00
2022-11-19T00:08:49.821Z,94.00
2022-11-19T00:11:40.173Z,96.90
2022-11-19T00:14:08.516Z,103.82
2022-11-19T00:16:35.204Z,93.82
2022-11-19T00:19:01.820Z,93.43
2022-11-19T00:21:28.455Z,93.25
2022-11-19T00:23:55.777Z,95.18
2022-11-19T00:26:22.855Z,94.50
2022-11-19T00:28:49.733Z,94.57
2022-11-19T00:31:17.209Z,93.55
2022-11-19T00:33:45.469Z,92.85
2022-11-19T00:36:14.998Z,93.00
2022-11-19T00:38:42.496Z,96.25
2022-11-19T00:41:09.173Z,92.85
2022-11-19T00:43:48.640Z,93.18
2022-11-19T00:46:15.582Z,95.78
2022-11-19T00:48:42.367Z,98.15
2022-11-19T00:51:09.841Z,96.88
2022-11-19T00:53:37.029Z,99.80
2022-11-19T00:56:06.784Z,97.53
2022-11-19T00:58:33.649Z,98.28
2022-11-19T01:01:00.372Z,99.00
2022-11-19T01:03:27.480Z,98.63
2022-11-19T01:05:54.326Z,95.32
2022-11-19T01:08:22.048Z,97.93
2022-11-19T01:10:48.814Z,97.32
2022-11-19T01:13:33.989Z,96.40
2022-11-19T01:16:02.066Z,97.70
2022-11-19T01:18:29.057Z,96.68
2022-11-19T01:20:55.785Z,97.53
2022-11-19T01:23:22.913Z,99.20
2022-11-19T01:25:49.695Z,98.85
2022-11-19T01:28:16.336Z,99.95
2022-11-19T01:30:43.976Z,101.15
2022-11-19T01:33:10.805Z,97.05
2022-11-19T01:35:37.691Z,99.25
2022-11-19T01:38:05.581Z,99.32
2022-11-19T01:40:33.117Z,101.97
2022-11-19T01:42:59.766Z,97.57
2022-11-19T01:45:33.703Z,99.75
2022-11-19T01:48:11.163Z,99.25
2022-11-19T01:50:42.782Z,98.95
2022-11-19T01:53:10.005Z,99.22
2022-11-19T01:55:38.655Z,99.82
2022-11-19T01:58:07.132Z,98.45
2022-11-19T02:00:34.251Z,99.45
2022-11-19T02:03:01.055Z,99.15
2022-11-19T02:05:28.549Z,103.38
2022-11-19T02:07:59.002Z,97.68
2022-11-19T02:10:38.356Z,99.45
2022-11-19T02:13:42.012Z,98.70
2022-11-19T02:16:37.459Z,99.32
2022-11-19T02:19:33.816Z,104.35
2022-11-19T02:22:09.544Z,100.88
2022-11-19T02:24:59.074Z,100.57
2022-11-19T02:28:00.438Z,98.70
2022-11-19T02:30:37.377Z,98.57
2022-11-19T02:33:03.968Z,98.70
2022-11-19T02:35:42.612Z,100.68
2022-11-19T02:38:42.531Z,99.25
2022-11-19T02:41:40.014Z,101.78
2022-11-19T02:44:41.162Z,103.78
2022-11-19T02:47:13.130Z,99.22
2022-11-19T02:49:45.106Z,104.35
2022-11-19T02:52:14.575Z,100.22
2022-11-19T02:54:41.308Z,103.75
2022-11-19T02:57:11.044Z,101.35
2022-11-19T03:00:01.594Z,99.93
2022-11-19T03:02:51.618Z,100.72
2022-11-19T03:05:24.574Z,100.47
2022-11-19T03:07:51.320Z,102.93
2022-11-19T03:10:20.029Z,102.43
2022-11-19T03:13:28.264Z,104.40
2022-11-19T03:16:15.326Z,101.90
2022-11-19T03:18:53.691Z,102.30
2022-11-19T03:21:38.536Z,100.72
2022-11-19T03:24:31.424Z,102.18
2022-11-19T03:27:21.645Z,103.05
2022-11-19T03:29:51.740Z,102.07
2022-11-19T03:32:31.161Z,104.47
2022-11-19T03:35:03.197Z,104.45
2022-11-19T03:37:31.242Z,105.10
2022-11-19T03:40:00.742Z,105.18
2022-11-19T03:42:28.034Z,106.28
2022-11-19T03:45:04.628Z,105.70
2022-11-19T03:47:35.649Z,104.95
2022-11-19T03:50:26.988Z,105.82
2022-11-19T03:52:54.189Z,102.30
2022-11-19T03:55:27.343Z,104.43
2022-11-19T03:57:53.972Z,107.38
2022-11-19T04:00:20.714Z,103.45
2022-11-19T04:02:47.348Z,106.65
2022-11-19T04:05:14.122Z,108.13
2022-11-19T04:07:40.766Z,107.50
2022-11-19T04:10:07.752Z,106.05
2022-11-19T04:12:34.384Z,107.30
2022-11-19T04:15:01.016Z,106.15
2022-11-19T04:17:27.660Z,105.85
2022-11-19T04:19:54.292Z,106.00
2022-11-19T04:22:20.954Z,107.60
2022-11-19T04:24:47.643Z,108.13
2022-11-19T04:27:14.394Z,105.10
2022-11-19T04:29:41.021Z,104.72
2022-11-19T04:32:07.725Z,107.90
2022-11-19T04:34:34.384Z,107.32
2022-11-19T04:37:01.092Z,107.88
2022-11-19T04:39:27.757Z,104.60
2022-11-19T04:41:54.397Z,104.57
2022-11-19T04:44:21.182Z,110.75
2022-11-19T04:46:47.855Z,103.57
2022-11-19T04:49:14.591Z,103.25
2022-11-19T04:51:41.308Z,109.25
2022-11-19T04:54:10.757Z,104.80
2022-11-19T04:56:37.629Z,102.90
2022-11-19T04:59:04.672Z,104.93
2022-11-19T05:01:31.467Z,105.00
2022-11-19T05:03:58.228Z,103.63
2022-11-19T05:06:25.138Z,104.88
2022-11-19T05:08:51.760Z,104.40
2022-11-19T05:11:18.420Z,105.80
2022-11-19T05:13:45.073Z,103.38
2022-11-19T05:16:11.773Z,103.55
2022-11-19T05:18:38.462Z,102.63
2022-11-19T05:21:05.479Z,103.28
2022-11-19T05:23:32.095Z,101.53
2022-11-19T05:25:58.893Z,99.93
2022-11-19T05:28:37.939Z,101.47
2022-11-19T05:31:05.695Z,99.72
2022-11-19T05:33:34.208Z,99.55
2022-11-19T05:36:01.748Z,99.35
2022-11-19T05:38:28.365Z,97.70
2022-11-19T05:40:55.019Z,97.78
2022-11-19T05:43:21.681Z,98.10
2022-11-19T05:45:48.362Z,98.38
2022-11-19T05:48:15.513Z,99.32
2022-11-19T05:50:42.859Z,99.22
2022-11-19T05:53:10.070Z,100.38
2022-11-19T05:55:36.862Z,98.63
2022-11-19T05:58:03.530Z,100.15
2022-11-19T06:00:30.198Z,99.43
2022-11-19T06:02:56.919Z,100.50
2022-11-19T06:05:23.597Z,98.95
2022-11-19T06:07:50.250Z,99.97
2022-11-19T06:10:16.898Z,100.60
2022-11-19T06:12:45.708Z,99.13
2022-11-19T06:15:13.072Z,100.68
2022-11-19T06:17:39.715Z,98.63
2022-11-19T06:20:08.783Z,100.15
2022-11-19T06:22:36.313Z,100.57
2022-11-19T06:25:04.142Z,99.90
2022-11-19T06:27:30.881Z,98.03
2022-11-19T06:29:57.526Z,104.32
2022-11-19T06:32:24.209Z,103.07
2022-11-19T06:34:50.820Z,99.88
2022-11-19T06:37:17.469Z,101.43
2022-11-19T06:39:44.092Z,102.85
2022-11-19T06:42:29.771Z,101.47
2022-11-19T06:44:56.371Z,106.40
2022-11-19T06:47:22.987Z,101.65
2022-11-19T06:49:49.590Z,102.20
2022-11-19T06:52:16.209Z,102.32
2022-11-19T06:54:43.431Z,106.10
2022-11-19T06:57:10.530Z,102.28
2022-11-19T06:59:38.906Z,101.72
2022-11-19T07:02:06.114Z,103.13
2022-11-19T07:04:32.849Z,103.40
2022-11-19T07:06:59.576Z,103.40
2022-11-19T07:09:26.239Z,102.18
2022-11-19T07:11:52.937Z,100.93
2022-11-19T07:14:19.563Z,105.00
2022-11-19T07:16:46.240Z,105.80
2022-11-19T07:19:12.974Z,100.70
2022-11-19T07:21:39.786Z,103.55
2022-11-19T07:24:09.008Z,103.75
2022-11-19T07:26:37.064Z,100.95
2022-11-19T07:29:07.083Z,102.82
2022-11-19T07:31:34.516Z,102.60
2022-11-19T07:34:01.396Z,107.68
2022-11-19T07:36:28.146Z,103.88
2022-11-19T07:38:54.777Z,103.82
2022-11-19T07:41:39.947Z,105.75
2022-11-19T07:44:06.740Z,105.25
2022-11-19T07:46:33.468Z,103.03
2022-11-19T07:49:00.125Z,103.15
2022-11-19T07:51:27.325Z,105.68
2022-11-19T07:53:55.475Z,104.20
2022-11-19T07:56:22.892Z,104.25
2022-11-19T07:58:49.631Z,104.95
2022-11-19T08:01:19.153Z,103.72
2022-11-19T08:03:50.593Z,103.82
2022-11-19T08:06:21.405Z,105.50
2022-11-19T08:08:48.407Z,104.28
2022-11-19T08:11:16.742Z,104.43
2022-11-19T08:13:43.699Z,103.50
2022-11-19T08:16:12.959Z,102.75
2022-11-19T08:18:39.755Z,103.45
2022-11-19T08:21:11.734Z,102.93
2022-11-19T08:23:39.501Z,107.30
2022-11-19T08:26:07.556Z,103.47
2022-11-19T08:28:34.372Z,102.65
2022-11-19T08:31:09.069Z,105.05
2022-11-19T08:33:36.393Z,103.32
2022-11-19T08:36:03.777Z,106.45
2022-11-19T08:38:34.543Z,101.95
2022-11-19T08:41:22.360Z,104.55
2022-11-19T08:43:49.001Z,105.00
2022-11-19T08:46:15.624Z,103.72
2022-11-19T08:48:42.487Z,105.03
2022-11-19T08:51:14.698Z,103.13
2022-11-19T08:53:41.354Z,103.80
2022-11-19T08:56:08.482Z,106.75
2022-11-19T08:58:35.943Z,102.75
2022-11-19T09:01:10.671Z,101.88
2022-11-19T09:03:37.717Z,100.10
2022-11-19T09:06:05.459Z,101.90
2022-11-19T09:08:32.525Z,103.97
2022-11-19T09:10:59.219Z,104.90
2022-11-19T09:13:25.983Z,104.15
2022-11-19T09:15:52.622Z,102.60
2022-11-19T09:18:19.316Z,108.15
2022-11-19T09:20:45.996Z,101.88
2022-11-19T09:23:12.663Z,102.97
2022-11-19T09:25:39.302Z,103.75
2022-11-19T09:28:05.967Z,103.13
2022-11-19T09:30:32.645Z,101.72
2022-11-19T09:33:00.153Z,102.40
2022-11-19T09:35:26.772Z,101.28
2022-11-19T09:37:53.424Z,104.18
2022-11-19T09:40:23.160Z,103.43
2022-11-19T09:43:10.299Z,105.90
2022-11-19T09:45:58.098Z,101.63
2022-11-19T09:48:34.461Z,102.32
2022-11-19T09:51:14.007Z,104.22
2022-11-19T09:53:55.888Z,105.30
2022-11-19T09:56:30.910Z,103.22
2022-11-19T09:58:58.870Z,102.45
2022-11-19T10:01:28.181Z,107.10
2022-11-19T10:03:55.065Z,104.10
2022-11-19T10:06:25.477Z,103.70
2022-11-19T10:08:55.739Z,103.93
2022-11-19T10:11:48.525Z,101.57
2022-11-19T10:14:52.762Z,102.80
2022-11-19T10:17:34.214Z,103.00
2022-11-19T10:20:03.828Z,102.22
2022-11-19T10:23:12.751Z,105.15
2022-11-19T10:25:44.301Z,103.18
2022-11-19T10:28:10.947Z,103.38
2022-11-19T10:30:40.856Z,104.30
2022-11-19T10:33:18.609Z,99.38
2022-11-19T10:35:53.408Z,98.43
2022-11-19T10:38:42.950Z,98.22
2022-11-19T10:41:17.715Z,98.18
2022-11-19T10:43:50.476Z,99.05
2022-11-19T10:46:22.109Z,97.03
2022-11-19T10:48:54.220Z,101.03
2022-11-19T10:51:24.889Z,100.32
2022-11-19T10:53:53.380Z,99.88
2022-11-19T10:56:22.898Z,98.45
2022-11-19T10:58:57.404Z,99.68
2022-11-19T11:01:36.641Z,98.22
2022-11-19T11:04:21.128Z,97.35
2022-11-19T11:06:57.961Z,102.10
2022-11-19T11:09:34.595Z,99.70
2022-11-19T11:12:35.938Z,99.95
2022-11-19T11:15:15.544Z,97.80
2022-11-19T11:17:44.594Z,98.45
2022-11-19T11:20:17.347Z,100.15
2022-11-19T11:22:48.512Z,101.22
2022-11-19T11:25:27.352Z,98.45
2022-11-19T11:28:15.424Z,100.63
2022-11-19T11:31:03.099Z,105.10
2022-11-19T11:33:54.125Z,99.03
2022-11-19T11:36:25.330Z,102.28
2022-11-19T11:38:55.244Z,100.03
2022-11-19T11:42:05.542Z,98.53
2022-11-19T11:44:32.415Z,99.78
2022-11-19T11:47:03.200Z,104.00
2022-11-19T11:49:35.060Z,101.15
2022-11-19T11:52:06.877Z,108.93
2022-11-19T11:54:33.638Z,103.85
2022-11-19T11:57:18.976Z,103.72
2022-11-19T11:59:46.030Z,102.38
2022-11-19T12:02:32.348Z,102.40
2022-11-19T12:05:07.464Z,102.55
2022-11-19T12:07:46.032Z,101.88
2022-11-19T12:10:21.851Z,102.28
2022-11-19T12:13:14.639Z,102.15
2022-11-19T12:16:09.776Z,99.18
2022-11-19T12:18:54.677Z,102.95
2022-11-19T12:21:42.224Z,100.97
2022-11-19T12:24:17.702Z,102.22
2022-11-19T12:26:59.174Z,103.18
2022-11-19T12:29:40.962Z,99.82
2022-11-19T12:32:20.453Z,101.95
2022-11-19T12:34:56.411Z,101.43
2022-11-19T12:37:31.995Z,102.22
2022-11-19T12:40:25.032Z,105.35
2022-11-19T12:43:21.322Z,102.50
2022-11-19T12:46:01.246Z,101.28
2022-11-19T12:48:46.347Z,102.63
2022-11-19T12:51:18.852Z,100.45
2022-11-19T12:53:45.421Z,104.20
2022-11-19T12:56:42.808Z,103.63
2022-11-19T12:59:38.730Z,102.88
2022-11-19T13:02:36.542Z,102.57
2022-11-19T13:05:32.949Z,101.43
2022-11-19T13:08:13.140Z,103.05
2022-11-19T13:10:45.436Z,101.32
2022-11-19T13:13:16.857Z,102.75
2022-11-19T13:15:48.184Z,102.35
2022-11-19T13:18:17.434Z,101.40
2022-11-19T13:21:01.442Z,102.25
2022-11-19T13:23:33.939Z,101.57
2022-11-19T13:26:05.911Z,102.55
2022-11-19T13:28:57.023Z,102.70
2022-11-19T13:31:48.585Z,103.22
2022-11-19T13:34:43.215Z,101.82
2022-11-19T13:37:58.653Z,103.75
2022-11-19T13:40:51.552Z,103.32
2022-11-19T13:43:38.865Z,101.75
2022-11-19T13:46:11.201Z,105.85
2022-11-19T13:48:43.258Z,104.28
2022-11-19T13:51:31.559Z,103.32
2022-11-19T13:54:03.016Z,108.30
2022-11-19T13:56:45.948Z,105.68
2022-11-19T13:59:42.726Z,102.13
2022-11-19T14:02:47.069Z,105.53
2022-11-19T14:05:31.807Z,105.32
2022-11-19T14:08:28.392Z,106.10
2022-11-19T14:11:00.960Z,102.30
2022-11-19T14:13:56.806Z,104.50
2022-11-19T14:17:12.300Z,108.28
2022-11-19T14:20:08.490Z,107.85
2022-11-19T14:23:11.907Z,103.28
2022-11-19T14:26:09.083Z,104.75
2022-11-19T14:28:48.494Z,107.50
2022-11-19T14:31:17.338Z,108.13
2022-11-19T14:33:46.740Z,103.88
2022-11-19T14:36:28.348Z,106.20
2022-11-19T14:38:58.559Z,106.05
2022-11-19T14:41:35.448Z,108.13
2022-11-19T14:44:11.192Z,107.05
2022-11-19T14:46:43.068Z,103.85
2022-11-19T14:49:23.881Z,106.32
2022-11-19T14:51:56.620Z,109.00
2022-11-19T14:54:32.241Z,106.57
2022-11-19T14:57:21.257Z,107.32
2022-11-19T14:59:51.169Z,105.43
2022-11-19T15:02:24.114Z,109.55
2022-11-19T15:04:59.938Z,115.28
2022-11-19T15:07:52.728Z,107.75
2022-11-19T15:10:33.005Z,109.03
2022-11-19T15:13:24.573Z,107.07
2022-11-19T15:15:54.823Z,108.57
2022-11-19T15:18:40.207Z,103.88
2022-11-19T15:21:44.511Z,109.47
2022-11-19T15:24:19.438Z,108.18
2022-11-19T15:27:19.465Z,109.60
2022-11-19T15:30:03.552Z,107.00
2022-11-19T15:32:48.863Z,106.45
2022-11-19T15:35:30.521Z,108.30
2022-11-19T15:38:09.161Z,108.97
2022-11-19T15:40:36.673Z,105.15
2022-11-19T15:43:21.999Z,106.25
2022-11-19T15:46:06.008Z,108.65
2022-11-19T15:48:57.821Z,107.18
2022-11-19T15:51:24.498Z,111.70
2022-11-19T15:53:58.652Z,110.32
2022-11-19T15:56:29.131Z,108.95
2022-11-19T15:58:55.906Z,110.30
2022-11-19T16:01:23.036Z,107.13
2022-11-19T16:03:52.510Z,108.13
2022-11-19T16:06:25.969Z,109.32
2022-11-19T16:08:57.914Z,106.15
2022-11-19T16:11:47.214Z,109.07
2022-11-19T16:14:39.897Z,113.38
2022-11-19T16:17:39.790Z,108.00
2022-11-19T16:20:12.397Z,108.63
2022-11-19T16:22:52.619Z,110.10
2022-11-19T16:25:24.793Z,106.28
2022-11-19T16:27:56.064Z,111.13
2022-11-19T16:30:28.029Z,107.85
2022-11-19T16:32:59.032Z,112.85
2022-11-19T16:35:29.275Z,110.60
2022-11-19T16:37:58.334Z,109.38
2022-11-19T16:40:25.930Z,112.15
2022-11-19T16:42:59.241Z,112.38
2022-11-19T16:45:27.877Z,112.00
2022-11-19T16:47:59.328Z,110.30
2022-11-19T16:50:27.464Z,110.13
2022-11-19T16:52:55.367Z,115.25
2022-11-19T16:55:24.973Z,108.22
2022-11-19T16:57:57.509Z,109.65
2022-11-19T17:00:29.564Z,109.82
2022-11-19T17:02:57.829Z,115.57
2022-11-19T17:05:28.537Z,109.80
2022-11-19T17:08:18.769Z,106.47
2022-11-19T17:10:45.574Z,111.90
2022-11-19T17:13:33.285Z,113.38
2022-11-19T17:16:18.223Z,110.10
2022-11-19T17:18:44.942Z,110.25
2022-11-19T17:21:32.179Z,110.22
2022-11-19T17:23:58.949Z,113.85
2022-11-19T17:26:27.480Z,111.82
2022-11-19T17:29:16.788Z,115.20
2022-11-19T17:31:47.917Z,117.80
2022-11-19T17:34:33.857Z,108.30
2022-11-19T17:37:00.667Z,112.50
2022-11-19T17:39:27.281Z,116.60
2022-11-19T17:42:15.472Z,114.10
2022-11-19T17:44:42.234Z,111.50
2022-11-19T17:47:23.294Z,112.80
2022-11-19T17:49:50.976Z,112.00
2022-11-19T17:52:31.810Z,110.75
2022-11-19T17:55:20.288Z,114.90
2022-11-19T17:57:46.924Z,113.90
2022-11-19T18:00:14.356Z,115.72
2022-11-19T18:02:41.036Z,112.63
2022-11-19T18:05:16.458Z,114.22
2022-11-19T18:07:43.131Z,111.43
2022-11-19T18:10:10.252Z,114.47
2022-11-19T18:12:36.966Z,113.15
2022-11-19T18:15:04.507Z,115.45
2022-11-19T18:17:31.145Z,113.10
2022-11-19T18:19:57.859Z,114.47
2022-11-19T18:22:24.565Z,113.80
2022-11-19T18:24:52.465Z,115.38
2022-11-19T18:27:19.224Z,113.50
2022-11-19T18:29:45.872Z,111.47
2022-11-19T18:32:15.833Z,114.97
2022-11-19T18:34:43.628Z,112.47
2022-11-19T18:37:10.364Z,115.82
2022-11-19T18:39:37.078Z,111.95
2022-11-19T18:42:04.142Z,111.40
2022-11-19T18:44:33.624Z,116.55
2022-11-19T18:47:08.441Z,118.68
2022-11-19T18:49:35.638Z,113.63
2022-11-19T18:52:04.515Z,112.22
2022-11-19T18:54:31.511Z,119.30
2022-11-19T18:56:58.533Z,113.55
2022-11-19T18:59:25.357Z,111.75
2022-11-19T19:01:55.592Z,116.20
2022-11-19T19:04:23.233Z,112.93
2022-11-19T19:06:50.203Z,113.35
2022-11-19T19:09:20.184Z,112.93
2022-11-19T19:12:12.590Z,116.53
2022-11-19T19:14:40.048Z,114.93
2022-11-19T19:17:06.686Z,115.15
2022-11-19T19:19:33.313Z,113.90
2022-11-19T19:22:00.431Z,112.53
2022-11-19T19:24:27.330Z,116.40
2022-11-19T19:26:54.203Z,115.32
2022-11-19T19:29:21.220Z,114.03
2022-11-19T19:31:48.150Z,113.28
2022-11-19T19:34:14.867Z,112.55
2022-11-19T19:36:46.445Z,112.15
2022-11-19T19:39:17.050Z,114.20
2022-11-19T19:41:43.834Z,115.53
2022-11-19T19:44:10.995Z,113.68
2022-11-19T19:46:37.637Z,112.47
2022-11-19T19:49:04.398Z,113.57
2022-11-19T19:51:32.584Z,112.90
2022-11-19T19:53:59.801Z,119.03
2022-11-19T19:56:28.638Z,112.68
2022-11-19T19:58:56.297Z,111.03
2022-11-19T20:01:26.096Z,114.57
2022-11-19T20:03:54.827Z,114.82
2022-11-19T20:06:23.197Z,118.63
2022-11-19T20:08:49.971Z,110.82
2022-11-19T20:11:20.245Z,111.25
2022-11-19T20:13:47.569Z,117.00
2022-11-19T20:16:18.299Z,113.97
2022-11-19T20:18:46.625Z,114.20
2022-11-19T20:21:16.359Z,115.63
2022-11-19T20:23:43.629Z,114.25
2022-11-19T20:26:20.262Z,117.78
2022-11-19T20:28:47.794Z,113.15
2022-11-19T20:31:19.219Z,113.13
2022-11-19T20:33:47.372Z,111.47
2022-11-19T20:36:15.496Z,112.38
2022-11-19T20:38:45.889Z,111.30
2022-11-19T20:41:33.002Z,110.20
2022-11-19T20:44:19.503Z,113.15
2022-11-19T20:46:46.816Z,118.78
2022-11-19T20:49:16.945Z,115.55
2022-11-19T20:51:44.684Z,113.47
2022-11-19T20:54:12.117Z,112.25
2022-11-19T20:56:39.465Z,115.38
2022-11-19T20:59:06.597Z,113.43
2022-11-19T21:01:34.539Z,113.90
2022-11-19T21:04:01.477Z,112.85
2022-11-19T21:06:28.485Z,118.75
2022-11-19T21:08:55.684Z,115.03
2022-11-19T21:11:22.366Z,114.32
2022-11-19T21:13:49.020Z,114.65
2022-11-19T21:16:21.392Z,113.28
2022-11-19T21:18:48.273Z,120.75
2022-11-19T21:21:16.560Z,114.78
2022-11-19T21:23:43.652Z,117.82
2022-11-19T21:26:16.852Z,115.70
2022-11-19T21:28:47.764Z,117.50
2022-11-19T21:31:19.332Z,114.20
2022-11-19T21:33:46.066Z,114.18
2022-11-19T21:36:13.422Z,117.93
2022-11-19T21:38:40.525Z,118.07
2022-11-19T21:41:07.453Z,122.45
2022-11-19T21:43:35.142Z,115.68
2022-11-19T21:46:01.855Z,118.53
2022-11-19T21:48:28.526Z,117.80
2022-11-19T21:50:55.212Z,116.22
2022-11-19T21:53:21.897Z,116.30
2022-11-19T21:55:49.452Z,114.75
2022-11-19T21:58:16.555Z,122.15
2022-11-19T22:00:44.170Z,120.28
2022-11-19T22:03:10.877Z,117.25
2022-11-19T22:05:37.656Z,120.40
2022-11-19T22:08:04.328Z,118.20
2022-11-19T22:10:30.985Z,117.25
2022-11-19T22:12:58.640Z,116.82
2022-11-19T22:15:26.331Z,116.25
2022-11-19T22:17:53.002Z,117.85
2022-11-19T22:20:19.823Z,115.45
2022-11-19T22:22:46.577Z,116.90
2022-11-19T22:25:13.849Z,117.43
2022-11-19T22:27:41.693Z,115.60
2022-11-19T22:30:10.170Z,119.05
2022-11-19T22:32:37.213Z,116.97
2022-11-19T22:35:04.719Z,116.63
2022-11-19T22:37:31.924Z,116.25
2022-11-19T22:39:58.713Z,118.53
2022-11-19T22:42:25.437Z,115.10
2022-11-19T22:44:52.916Z,120.35
2022-11-19T22:47:19.611Z,118.03
2022-11-19T22:49:46.211Z,117.75
2022-11-19T22:52:14.550Z,115.70
2022-11-19T22:54:41.898Z,116.68
2022-11-19T22:57:09.406Z,119.95
2022-11-19T22:59:36.100Z,120.25
2022-11-19T23:02:02.903Z,117.00
2022-11-19T23:04:29.635Z,121.75
2022-11-19T23:06:56.584Z,118.45
2022-11-19T23:09:23.582Z,119.15
2022-11-19T23:12:08.710Z,115.78
2022-11-19T23:14:35.362Z,115.47
2022-11-19T23:17:01.990Z,114.63
2022-11-19T23:19:28.628Z,117.47
2022-11-19T23:21:55.245Z,114.55
2022-11-19T23:24:21.876Z,117.03
2022-11-19T23:26:48.529Z,113.85
2022-11-19T23:29:15.194Z,116.38
2022-11-19T23:31:41.856Z,111.55
2022-11-19T23:34:08.551Z,116.63
2022-11-19T23:36:38.398Z,117.25
2022-11-19T23:39:06.633Z,114.50
2022-11-19T23:41:33.962Z,112.32
2022-11-19T23:44:01.233Z,116.10
2022-11-19T23:46:30.340Z,117.43
2022-11-19T23:48:58.491Z,115.15
2022-11-19T23:51:30.688Z,114.68
2022-11-19T23:53:58.114Z,114.30
2022-11-19T23:56:25.692Z,120.97
2022-11-19T23:58:52.873Z,114.38
